Terminal Aerodrome Forecast
Issued by NWS Pueblo, CO

Home | Current Version | Previous Version | Text Only | Print | Product List | Glossary On
Versions: 1 2 3 4 5 6 7 8 9 10 11 12 13 14 15 16 17 18 19 20 21 22
000
FTUS45 KPUB 230521
TAFPUB
TAF
KPUB 230521Z 2306/2406 26005KT P6SM SCT090 BKN150
     FM231900 26020G32KT P6SM FEW090 BKN200
     FM240100 21014G22KT P6SM FEW090 BKN200
     FM240300 18009KT P6SM BKN200=

USA.gov is the U.S. government's official web portal to all federal, state and local government web resources and services.